sensor_id;sensor_type;location;lat;lon;timestamp;P1;durP1;ratioP1;P2;durP2;ratioP2
5273;SDS011;56254;50.956;7.010;2022-10-19T00:01:40;45.73;;;14.57;;
5273;SDS011;56254;50.956;7.010;2022-10-19T00:04:05;46.40;;;14.00;;
5273;SDS011;56254;50.956;7.010;2022-10-19T00:06:32;22.30;;;12.77;;
5273;SDS011;56254;50.956;7.010;2022-10-19T00:09:05;40.43;;;14.67;;
5273;SDS011;56254;50.956;7.010;2022-10-19T00:11:43;35.63;;;12.60;;
5273;SDS011;56254;50.956;7.010;2022-10-19T00:14:11;25.83;;;12.90;;
5273;SDS011;56254;50.956;7.010;2022-10-19T00:16:39;40.83;;;14.10;;
5273;SDS011;56254;50.956;7.010;2022-10-19T00:19:07;36.73;;;13.83;;
5273;SDS011;56254;50.956;7.010;2022-10-19T00:21:35;35.27;;;12.97;;
5273;SDS011;56254;50.956;7.010;2022-10-19T00:24:03;33.53;;;13.83;;
5273;SDS011;56254;50.956;7.010;2022-10-19T00:26:29;28.50;;;12.73;;
5273;SDS011;56254;50.956;7.010;2022-10-19T00:28:55;38.83;;;12.63;;
5273;SDS011;56254;50.956;7.010;2022-10-19T00:31:21;42.97;;;12.37;;
5273;SDS011;56254;50.956;7.010;2022-10-19T00:33:47;27.23;;;12.50;;
5273;SDS011;56254;50.956;7.010;2022-10-19T00:36:17;30.13;;;12.77;;
5273;SDS011;56254;50.956;7.010;2022-10-19T00:38:47;27.23;;;11.10;;
5273;SDS011;56254;50.956;7.010;2022-10-19T00:41:13;32.87;;;12.00;;
5273;SDS011;56254;50.956;7.010;2022-10-19T00:43:54;31.53;;;11.37;;
5273;SDS011;56254;50.956;7.010;2022-10-19T00:46:25;34.90;;;12.47;;
5273;SDS011;56254;50.956;7.010;2022-10-19T00:48:53;30.73;;;11.30;;
5273;SDS011;56254;50.956;7.010;2022-10-19T00:51:22;31.37;;;11.97;;
5273;SDS011;56254;50.956;7.010;2022-10-19T00:53:49;37.03;;;13.47;;
5273;SDS011;56254;50.956;7.010;2022-10-19T00:56:15;29.27;;;11.80;;
5273;SDS011;56254;50.956;7.010;2022-10-19T00:58:42;21.70;;;11.50;;
5273;SDS011;56254;50.956;7.010;2022-10-19T01:01:09;29.00;;;12.13;;
5273;SDS011;56254;50.956;7.010;2022-10-19T01:03:38;29.70;;;12.20;;
5273;SDS011;56254;50.956;7.010;2022-10-19T01:06:04;24.30;;;12.40;;
5273;SDS011;56254;50.956;7.010;2022-10-19T01:08:32;46.47;;;11.70;;
5273;SDS011;56254;50.956;7.010;2022-10-19T01:11:02;35.87;;;11.57;;
5273;SDS011;56254;50.956;7.010;2022-10-19T01:16:23;32.03;;;11.43;;
5273;SDS011;56254;50.956;7.010;2022-10-19T01:22:06;21.77;;;12.10;;
5273;SDS011;56254;50.956;7.010;2022-10-19T01:27:34;22.87;;;10.67;;
5273;SDS011;56254;50.956;7.010;2022-10-19T01:32:52;35.60;;;11.07;;
5273;SDS011;56254;50.956;7.010;2022-10-19T01:35:27;24.00;;;12.57;;
5273;SDS011;56254;50.956;7.010;2022-10-19T01:40:53;19.93;;;11.23;;
5273;SDS011;56254;50.956;7.010;2022-10-19T01:43:26;28.87;;;11.60;;
5273;SDS011;56254;50.956;7.010;2022-10-19T01:46:06;26.10;;;11.10;;
5273;SDS011;56254;50.956;7.010;2022-10-19T01:48:37;32.50;;;10.90;;
5273;SDS011;56254;50.956;7.010;2022-10-19T01:51:12;25.33;;;11.80;;
5273;SDS011;56254;50.956;7.010;2022-10-19T01:53:43;42.27;;;12.47;;
5273;SDS011;56254;50.956;7.010;2022-10-19T01:56:17;23.93;;;11.13;;
5273;SDS011;56254;50.956;7.010;2022-10-19T01:58:45;20.77;;;11.77;;
5273;SDS011;56254;50.956;7.010;2022-10-19T02:01:14;27.70;;;11.60;;
5273;SDS011;56254;50.956;7.010;2022-10-19T02:03:42;42.47;;;11.50;;
5273;SDS011;56254;50.956;7.010;2022-10-19T02:06:08;28.10;;;11.37;;
5273;SDS011;56254;50.956;7.010;2022-10-19T02:08:53;33.07;;;10.77;;
5273;SDS011;56254;50.956;7.010;2022-10-19T02:11:22;26.43;;;11.60;;
5273;SDS011;56254;50.956;7.010;2022-10-19T02:13:49;32.60;;;9.73;;
5273;SDS011;56254;50.956;7.010;2022-10-19T02:16:25;46.80;;;11.03;;
5273;SDS011;56254;50.956;7.010;2022-10-19T02:18:56;20.50;;;10.10;;
5273;SDS011;56254;50.956;7.010;2022-10-19T02:21:25;26.27;;;10.30;;
5273;SDS011;56254;50.956;7.010;2022-10-19T02:23:52;38.73;;;11.27;;
5273;SDS011;56254;50.956;7.010;2022-10-19T02:26:17;23.13;;;10.20;;
5273;SDS011;56254;50.956;7.010;2022-10-19T02:28:45;19.10;;;9.70;;
5273;SDS011;56254;50.956;7.010;2022-10-19T02:31:11;20.27;;;10.03;;
5273;SDS011;56254;50.956;7.010;2022-10-19T02:33:37;25.97;;;10.10;;
5273;SDS011;56254;50.956;7.010;2022-10-19T02:36:06;23.13;;;10.00;;
5273;SDS011;56254;50.956;7.010;2022-10-19T02:38:32;15.07;;;9.00;;
5273;SDS011;56254;50.956;7.010;2022-10-19T02:43:57;21.97;;;9.23;;
5273;SDS011;56254;50.956;7.010;2022-10-19T02:49:00;19.57;;;9.97;;
5273;SDS011;56254;50.956;7.010;2022-10-19T02:51:34;18.03;;;9.40;;
5273;SDS011;56254;50.956;7.010;2022-10-19T02:54:02;13.37;;;8.50;;
5273;SDS011;56254;50.956;7.010;2022-10-19T02:56:30;17.90;;;9.37;;
5273;SDS011;56254;50.956;7.010;2022-10-19T02:58:57;23.20;;;10.67;;
5273;SDS011;56254;50.956;7.010;2022-10-19T03:01:23;19.13;;;8.73;;
5273;SDS011;56254;50.956;7.010;2022-10-19T03:03:50;22.13;;;8.43;;
5273;SDS011;56254;50.956;7.010;2022-10-19T03:06:15;18.57;;;8.07;;
5273;SDS011;56254;50.956;7.010;2022-10-19T03:08:41;20.23;;;8.13;;
5273;SDS011;56254;50.956;7.010;2022-10-19T03:11:08;35.37;;;7.90;;
5273;SDS011;56254;50.956;7.010;2022-10-19T03:13:34;18.30;;;7.20;;
5273;SDS011;56254;50.956;7.010;2022-10-19T03:16:06;21.23;;;8.20;;
5273;SDS011;56254;50.956;7.010;2022-10-19T03:18:33;27.60;;;11.67;;
5273;SDS011;56254;50.956;7.010;2022-10-19T03:21:03;27.47;;;9.07;;
5273;SDS011;56254;50.956;7.010;2022-10-19T03:23:30;14.80;;;8.63;;
5273;SDS011;56254;50.956;7.010;2022-10-19T03:25:55;18.57;;;9.13;;
5273;SDS011;56254;50.956;7.010;2022-10-19T03:28:21;40.00;;;10.87;;
5273;SDS011;56254;50.956;7.010;2022-10-19T03:30:48;20.07;;;9.50;;
5273;SDS011;56254;50.956;7.010;2022-10-19T03:33:13;22.50;;;9.47;;
5273;SDS011;56254;50.956;7.010;2022-10-19T03:35:39;30.10;;;9.03;;
5273;SDS011;56254;50.956;7.010;2022-10-19T03:38:05;24.00;;;9.97;;
5273;SDS011;56254;50.956;7.010;2022-10-19T03:40:30;27.47;;;9.63;;
5273;SDS011;56254;50.956;7.010;2022-10-19T03:42:56;28.80;;;11.10;;
5273;SDS011;56254;50.956;7.010;2022-10-19T03:45:22;25.50;;;10.80;;
5273;SDS011;56254;50.956;7.010;2022-10-19T03:47:48;22.07;;;9.60;;
5273;SDS011;56254;50.956;7.010;2022-10-19T03:50:14;23.30;;;9.50;;
5273;SDS011;56254;50.956;7.010;2022-10-19T03:52:41;25.33;;;9.33;;
5273;SDS011;56254;50.956;7.010;2022-10-19T03:55:07;27.13;;;10.03;;
5273;SDS011;56254;50.956;7.010;2022-10-19T03:57:34;40.87;;;10.27;;
5273;SDS011;56254;50.956;7.010;2022-10-19T04:00:00;26.10;;;9.17;;
5273;SDS011;56254;50.956;7.010;2022-10-19T04:02:26;20.00;;;9.07;;
5273;SDS011;56254;50.956;7.010;2022-10-19T04:04:51;25.13;;;9.00;;
5273;SDS011;56254;50.956;7.010;2022-10-19T04:07:17;14.57;;;9.13;;
5273;SDS011;56254;50.956;7.010;2022-10-19T04:09:42;25.10;;;9.80;;
5273;SDS011;56254;50.956;7.010;2022-10-19T04:12:08;18.67;;;9.57;;
5273;SDS011;56254;50.956;7.010;2022-10-19T04:14:34;20.70;;;9.63;;
5273;SDS011;56254;50.956;7.010;2022-10-19T04:17:01;20.30;;;10.20;;
5273;SDS011;56254;50.956;7.010;2022-10-19T04:19:26;16.93;;;9.87;;
5273;SDS011;56254;50.956;7.010;2022-10-19T04:21:52;24.23;;;8.53;;
5273;SDS011;56254;50.956;7.010;2022-10-19T04:24:19;18.50;;;8.87;;
5273;SDS011;56254;50.956;7.010;2022-10-19T04:26:48;26.43;;;8.97;;
5273;SDS011;56254;50.956;7.010;2022-10-19T04:29:16;25.00;;;9.57;;
5273;SDS011;56254;50.956;7.010;2022-10-19T04:31:44;16.23;;;8.67;;
5273;SDS011;56254;50.956;7.010;2022-10-19T04:34:12;12.20;;;7.27;;
5273;SDS011;56254;50.956;7.010;2022-10-19T04:36:37;35.30;;;8.37;;
5273;SDS011;56254;50.956;7.010;2022-10-19T04:39:04;28.63;;;8.50;;
5273;SDS011;56254;50.956;7.010;2022-10-19T04:41:30;23.40;;;8.40;;
5273;SDS011;56254;50.956;7.010;2022-10-19T04:43:57;19.13;;;8.97;;
5273;SDS011;56254;50.956;7.010;2022-10-19T04:46:25;19.87;;;9.27;;
5273;SDS011;56254;50.956;7.010;2022-10-19T04:48:52;15.00;;;7.80;;
5273;SDS011;56254;50.956;7.010;2022-10-19T04:51:18;24.47;;;9.03;;
5273;SDS011;56254;50.956;7.010;2022-10-19T04:53:44;24.10;;;8.40;;
5273;SDS011;56254;50.956;7.010;2022-10-19T04:56:11;29.80;;;7.70;;
5273;SDS011;56254;50.956;7.010;2022-10-19T04:58:40;27.63;;;9.40;;
5273;SDS011;56254;50.956;7.010;2022-10-19T05:01:10;31.63;;;8.67;;
5273;SDS011;56254;50.956;7.010;2022-10-19T05:03:40;16.10;;;8.93;;
5273;SDS011;56254;50.956;7.010;2022-10-19T05:06:06;19.93;;;8.97;;
5273;SDS011;56254;50.956;7.010;2022-10-19T05:08:33;20.53;;;8.83;;
5273;SDS011;56254;50.956;7.010;2022-10-19T05:11:00;22.37;;;9.60;;
5273;SDS011;56254;50.956;7.010;2022-10-19T05:13:32;19.70;;;8.80;;
5273;SDS011;56254;50.956;7.010;2022-10-19T05:15:59;26.10;;;9.47;;
5273;SDS011;56254;50.956;7.010;2022-10-19T05:18:26;18.07;;;9.80;;
5273;SDS011;56254;50.956;7.010;2022-10-19T05:23:31;29.20;;;10.43;;
5273;SDS011;56254;50.956;7.010;2022-10-19T05:25:59;29.27;;;9.83;;
5273;SDS011;56254;50.956;7.010;2022-10-19T05:28:25;27.37;;;9.73;;
5273;SDS011;56254;50.956;7.010;2022-10-19T05:30:51;25.03;;;9.10;;
5273;SDS011;56254;50.956;7.010;2022-10-19T05:33:16;19.03;;;8.63;;
5273;SDS011;56254;50.956;7.010;2022-10-19T05:35:42;21.20;;;8.80;;
5273;SDS011;56254;50.956;7.010;2022-10-19T05:38:07;33.60;;;11.10;;
5273;SDS011;56254;50.956;7.010;2022-10-19T05:40:33;21.03;;;8.97;;
5273;SDS011;56254;50.956;7.010;2022-10-19T05:42:59;36.60;;;9.77;;
5273;SDS011;56254;50.956;7.010;2022-10-19T05:45:24;34.97;;;10.47;;
5273;SDS011;56254;50.956;7.010;2022-10-19T05:47:50;21.90;;;9.73;;
5273;SDS011;56254;50.956;7.010;2022-10-19T05:50:16;25.93;;;10.23;;
5273;SDS011;56254;50.956;7.010;2022-10-19T05:52:41;21.23;;;9.47;;
5273;SDS011;56254;50.956;7.010;2022-10-19T05:55:07;29.67;;;9.50;;
5273;SDS011;56254;50.956;7.010;2022-10-19T05:57:33;17.80;;;9.07;;
5273;SDS011;56254;50.956;7.010;2022-10-19T05:59:59;31.47;;;9.70;;
5273;SDS011;56254;50.956;7.010;2022-10-19T06:02:24;28.03;;;9.90;;
5273;SDS011;56254;50.956;7.010;2022-10-19T06:04:50;20.13;;;9.90;;
5273;SDS011;56254;50.956;7.010;2022-10-19T06:07:16;21.73;;;9.03;;
5273;SDS011;56254;50.956;7.010;2022-10-19T06:09:47;22.10;;;9.63;;
5273;SDS011;56254;50.956;7.010;2022-10-19T06:12:13;14.43;;;8.33;;
5273;SDS011;56254;50.956;7.010;2022-10-19T06:14:39;19.87;;;8.67;;
5273;SDS011;56254;50.956;7.010;2022-10-19T06:17:04;19.20;;;8.90;;
5273;SDS011;56254;50.956;7.010;2022-10-19T06:19:32;20.03;;;9.10;;
5273;SDS011;56254;50.956;7.010;2022-10-19T06:21:57;14.20;;;7.80;;
5273;SDS011;56254;50.956;7.010;2022-10-19T06:24:23;15.30;;;8.67;;
5273;SDS011;56254;50.956;7.010;2022-10-19T06:26:48;23.20;;;8.93;;
5273;SDS011;56254;50.956;7.010;2022-10-19T06:29:14;19.53;;;8.70;;
5273;SDS011;56254;50.956;7.010;2022-10-19T06:31:40;13.80;;;8.80;;
5273;SDS011;56254;50.956;7.010;2022-10-19T06:34:05;18.20;;;8.37;;
5273;SDS011;56254;50.956;7.010;2022-10-19T06:36:31;16.90;;;9.03;;
5273;SDS011;56254;50.956;7.010;2022-10-19T06:38:57;16.30;;;8.70;;
5273;SDS011;56254;50.956;7.010;2022-10-19T06:41:26;17.73;;;9.60;;
5273;SDS011;56254;50.956;7.010;2022-10-19T06:43:53;18.10;;;9.53;;
5273;SDS011;56254;50.956;7.010;2022-10-19T06:46:20;18.67;;;9.00;;
5273;SDS011;56254;50.956;7.010;2022-10-19T06:48:57;15.77;;;8.43;;
5273;SDS011;56254;50.956;7.010;2022-10-19T06:51:26;13.37;;;8.87;;
5273;SDS011;56254;50.956;7.010;2022-10-19T06:53:53;29.43;;;9.20;;
5273;SDS011;56254;50.956;7.010;2022-10-19T06:56:20;16.63;;;8.77;;
5273;SDS011;56254;50.956;7.010;2022-10-19T06:58:51;15.60;;;8.60;;
5273;SDS011;56254;50.956;7.010;2022-10-19T07:01:17;26.40;;;12.03;;
5273;SDS011;56254;50.956;7.010;2022-10-19T07:03:43;26.27;;;10.00;;
5273;SDS011;56254;50.956;7.010;2022-10-19T07:06:10;15.33;;;10.10;;
5273;SDS011;56254;50.956;7.010;2022-10-19T07:08:37;26.23;;;9.77;;
5273;SDS011;56254;50.956;7.010;2022-10-19T07:11:06;25.40;;;10.90;;
5273;SDS011;56254;50.956;7.010;2022-10-19T07:13:33;19.60;;;10.57;;
5273;SDS011;56254;50.956;7.010;2022-10-19T07:16:02;23.50;;;10.40;;
5273;SDS011;56254;50.956;7.010;2022-10-19T07:18:33;17.40;;;8.80;;
5273;SDS011;56254;50.956;7.010;2022-10-19T07:21:01;18.23;;;8.70;;
5273;SDS011;56254;50.956;7.010;2022-10-19T07:23:30;29.23;;;8.00;;
5273;SDS011;56254;50.956;7.010;2022-10-19T07:25:57;32.00;;;7.47;;
5273;SDS011;56254;50.956;7.010;2022-10-19T07:28:26;20.27;;;7.20;;
5273;SDS011;56254;50.956;7.010;2022-10-19T07:30:53;11.87;;;7.40;;
5273;SDS011;56254;50.956;7.010;2022-10-19T07:33:19;16.67;;;7.10;;
5273;SDS011;56254;50.956;7.010;2022-10-19T07:35:45;11.10;;;6.80;;
5273;SDS011;56254;50.956;7.010;2022-10-19T07:38:11;17.97;;;7.80;;
5273;SDS011;56254;50.956;7.010;2022-10-19T07:40:37;10.90;;;7.00;;
5273;SDS011;56254;50.956;7.010;2022-10-19T07:43:03;26.50;;;7.03;;
5273;SDS011;56254;50.956;7.010;2022-10-19T07:45:29;18.23;;;7.20;;
5273;SDS011;56254;50.956;7.010;2022-10-19T07:47:58;22.83;;;6.40;;
5273;SDS011;56254;50.956;7.010;2022-10-19T07:50:24;15.73;;;6.30;;
5273;SDS011;56254;50.956;7.010;2022-10-19T07:52:51;19.73;;;7.10;;
5273;SDS011;56254;50.956;7.010;2022-10-19T07:55:17;17.20;;;7.60;;
5273;SDS011;56254;50.956;7.010;2022-10-19T07:57:47;17.27;;;6.47;;
5273;SDS011;56254;50.956;7.010;2022-10-19T08:00:13;20.97;;;7.33;;
5273;SDS011;56254;50.956;7.010;2022-10-19T08:02:40;13.97;;;7.00;;
5273;SDS011;56254;50.956;7.010;2022-10-19T08:05:05;13.50;;;6.80;;
5273;SDS011;56254;50.956;7.010;2022-10-19T08:07:32;9.40;;;6.40;;
5273;SDS011;56254;50.956;7.010;2022-10-19T08:09:58;26.87;;;7.00;;
5273;SDS011;56254;50.956;7.010;2022-10-19T08:12:23;15.10;;;6.60;;
5273;SDS011;56254;50.956;7.010;2022-10-19T08:14:49;10.93;;;5.40;;
5273;SDS011;56254;50.956;7.010;2022-10-19T08:17:15;14.27;;;6.67;;
5273;SDS011;56254;50.956;7.010;2022-10-19T08:19:44;17.53;;;7.03;;
5273;SDS011;56254;50.956;7.010;2022-10-19T08:22:10;6.80;;;5.27;;
5273;SDS011;56254;50.956;7.010;2022-10-19T08:24:36;21.30;;;8.47;;
5273;SDS011;56254;50.956;7.010;2022-10-19T08:27:02;27.87;;;7.17;;
5273;SDS011;56254;50.956;7.010;2022-10-19T08:29:28;12.50;;;6.90;;
5273;SDS011;56254;50.956;7.010;2022-10-19T08:31:53;12.13;;;6.73;;
5273;SDS011;56254;50.956;7.010;2022-10-19T08:34:19;10.60;;;6.03;;
5273;SDS011;56254;50.956;7.010;2022-10-19T08:36:45;26.67;;;6.50;;
5273;SDS011;56254;50.956;7.010;2022-10-19T08:39:11;19.17;;;7.20;;
5273;SDS011;56254;50.956;7.010;2022-10-19T08:44:10;16.53;;;6.37;;
5273;SDS011;56254;50.956;7.010;2022-10-19T08:46:57;12.63;;;6.27;;
5273;SDS011;56254;50.956;7.010;2022-10-19T08:49:44;19.57;;;5.93;;
5273;SDS011;56254;50.956;7.010;2022-10-19T08:54:53;22.17;;;5.80;;
5273;SDS011;56254;50.956;7.010;2022-10-19T09:00:42;20.30;;;6.23;;
5273;SDS011;56254;50.956;7.010;2022-10-19T09:06:21;11.23;;;5.50;;
5273;SDS011;56254;50.956;7.010;2022-10-19T09:09:12;14.30;;;5.40;;
5273;SDS011;56254;50.956;7.010;2022-10-19T09:11:41;13.70;;;5.40;;
5273;SDS011;56254;50.956;7.010;2022-10-19T09:14:24;13.20;;;4.80;;
5273;SDS011;56254;50.956;7.010;2022-10-19T09:16:58;11.50;;;5.00;;
5273;SDS011;56254;50.956;7.010;2022-10-19T09:19:27;16.33;;;5.90;;
5273;SDS011;56254;50.956;7.010;2022-10-19T09:21:56;21.47;;;5.50;;
5273;SDS011;56254;50.956;7.010;2022-10-19T09:24:48;9.13;;;4.87;;
5273;SDS011;56254;50.956;7.010;2022-10-19T09:27:20;13.80;;;5.37;;
5273;SDS011;56254;50.956;7.010;2022-10-19T09:29:54;10.70;;;5.20;;
5273;SDS011;56254;50.956;7.010;2022-10-19T09:32:27;8.63;;;4.80;;
5273;SDS011;56254;50.956;7.010;2022-10-19T09:35:00;18.87;;;5.10;;
5273;SDS011;56254;50.956;7.010;2022-10-19T09:37:29;16.50;;;5.00;;
5273;SDS011;56254;50.956;7.010;2022-10-19T09:39:58;6.47;;;4.20;;
5273;SDS011;56254;50.956;7.010;2022-10-19T09:45:17;16.87;;;5.03;;
5273;SDS011;56254;50.956;7.010;2022-10-19T09:47:59;6.37;;;4.07;;
5273;SDS011;56254;50.956;7.010;2022-10-19T09:50:28;17.13;;;4.57;;
5273;SDS011;56254;50.956;7.010;2022-10-19T09:52:56;18.97;;;5.60;;
5273;SDS011;56254;50.956;7.010;2022-10-19T09:55:36;12.03;;;4.43;;
5273;SDS011;56254;50.956;7.010;2022-10-19T09:58:14;14.13;;;5.37;;
5273;SDS011;56254;50.956;7.010;2022-10-19T10:00:44;19.30;;;4.67;;
5273;SDS011;56254;50.956;7.010;2022-10-19T10:03:25;14.07;;;4.50;;
5273;SDS011;56254;50.956;7.010;2022-10-19T10:05:56;11.30;;;4.50;;
5273;SDS011;56254;50.956;7.010;2022-10-19T10:08:38;14.90;;;4.70;;
5273;SDS011;56254;50.956;7.010;2022-10-19T10:11:14;8.37;;;4.40;;
5273;SDS011;56254;50.956;7.010;2022-10-19T10:13:51;10.60;;;4.63;;
5273;SDS011;56254;50.956;7.010;2022-10-19T10:16:19;17.60;;;4.23;;
5273;SDS011;56254;50.956;7.010;2022-10-19T10:21:20;22.33;;;4.23;;
5273;SDS011;56254;50.956;7.010;2022-10-19T10:23:57;20.00;;;4.97;;
5273;SDS011;56254;50.956;7.010;2022-10-19T10:26:29;14.50;;;5.23;;
5273;SDS011;56254;50.956;7.010;2022-10-19T10:28:56;8.27;;;4.37;;
5273;SDS011;56254;50.956;7.010;2022-10-19T10:31:26;15.37;;;4.10;;
5273;SDS011;56254;50.956;7.010;2022-10-19T10:33:57;17.20;;;3.97;;
5273;SDS011;56254;50.956;7.010;2022-10-19T10:36:29;10.13;;;3.80;;
5273;SDS011;56254;50.956;7.010;2022-10-19T10:39:00;11.37;;;4.77;;
5273;SDS011;56254;50.956;7.010;2022-10-19T10:41:36;11.07;;;4.57;;
5273;SDS011;56254;50.956;7.010;2022-10-19T10:44:06;8.30;;;4.17;;
5273;SDS011;56254;50.956;7.010;2022-10-19T10:46:41;10.90;;;4.20;;
5273;SDS011;56254;50.956;7.010;2022-10-19T10:49:16;22.03;;;3.73;;
5273;SDS011;56254;50.956;7.010;2022-10-19T10:51:49;5.83;;;3.40;;
5273;SDS011;56254;50.956;7.010;2022-10-19T10:54:25;18.37;;;4.00;;
5273;SDS011;56254;50.956;7.010;2022-10-19T11:05:19;10.43;;;3.90;;
5273;SDS011;56254;50.956;7.010;2022-10-19T11:08:03;14.53;;;5.03;;
5273;SDS011;56254;50.956;7.010;2022-10-19T11:10:45;10.20;;;3.93;;
5273;SDS011;56254;50.956;7.010;2022-10-19T11:13:23;6.40;;;2.77;;
5273;SDS011;56254;50.956;7.010;2022-10-19T11:16:13;11.80;;;3.13;;
5273;SDS011;56254;50.956;7.010;2022-10-19T11:19:04;14.40;;;3.57;;
5273;SDS011;56254;50.956;7.010;2022-10-19T11:21:51;10.10;;;3.00;;
5273;SDS011;56254;50.956;7.010;2022-10-19T11:27:20;17.87;;;2.83;;
5273;SDS011;56254;50.956;7.010;2022-10-19T11:32:26;12.73;;;2.40;;
5273;SDS011;56254;50.956;7.010;2022-10-19T11:43:15;7.37;;;3.10;;
5273;SDS011;56254;50.956;7.010;2022-10-19T11:58:01;9.90;;;3.53;;
5273;SDS011;56254;50.956;7.010;2022-10-19T12:00:18;9.03;;;2.93;;
5273;SDS011;56254;50.956;7.010;2022-10-19T12:03:04;14.67;;;3.30;;
5273;SDS011;56254;50.956;7.010;2022-10-19T12:08:40;26.13;;;3.80;;
5273;SDS011;56254;50.956;7.010;2022-10-19T12:14:03;13.40;;;3.20;;
5273;SDS011;56254;50.956;7.010;2022-10-19T12:16:38;9.50;;;3.37;;
5273;SDS011;56254;50.956;7.010;2022-10-19T12:19:08;4.63;;;2.47;;
5273;SDS011;56254;50.956;7.010;2022-10-19T12:21:42;7.20;;;2.80;;
5273;SDS011;56254;50.956;7.010;2022-10-19T12:24:14;12.00;;;3.27;;
5273;SDS011;56254;50.956;7.010;2022-10-19T12:26:45;8.07;;;2.70;;
5273;SDS011;56254;50.956;7.010;2022-10-19T12:29:20;15.87;;;3.50;;
5273;SDS011;56254;50.956;7.010;2022-10-19T12:31:49;19.43;;;3.10;;
5273;SDS011;56254;50.956;7.010;2022-10-19T12:36:57;8.90;;;3.30;;
5273;SDS011;56254;50.956;7.010;2022-10-19T12:39:39;4.23;;;2.87;;
5273;SDS011;56254;50.956;7.010;2022-10-19T12:47:26;9.83;;;2.97;;
5273;SDS011;56254;50.956;7.010;2022-10-19T12:49:52;10.33;;;3.37;;
5273;SDS011;56254;50.956;7.010;2022-10-19T12:52:39;13.13;;;4.33;;
5273;SDS011;56254;50.956;7.010;2022-10-19T12:55:29;8.30;;;3.67;;
5273;SDS011;56254;50.956;7.010;2022-10-19T12:58:05;4.83;;;3.23;;
5273;SDS011;56254;50.956;7.010;2022-10-19T13:00:43;15.63;;;4.73;;
5273;SDS011;56254;50.956;7.010;2022-10-19T13:03:39;6.53;;;3.10;;
5273;SDS011;56254;50.956;7.010;2022-10-19T13:06:14;11.23;;;3.90;;
5273;SDS011;56254;50.956;7.010;2022-10-19T13:08:57;11.60;;;4.40;;
5273;SDS011;56254;50.956;7.010;2022-10-19T13:11:25;7.10;;;3.27;;
5273;SDS011;56254;50.956;7.010;2022-10-19T13:19:02;10.10;;;3.67;;
5273;SDS011;56254;50.956;7.010;2022-10-19T13:29:26;15.53;;;3.97;;
5273;SDS011;56254;50.956;7.010;2022-10-19T13:38:08;9.13;;;4.10;;
5273;SDS011;56254;50.956;7.010;2022-10-19T13:40:36;14.13;;;3.97;;
5273;SDS011;56254;50.956;7.010;2022-10-19T13:43:24;7.70;;;4.00;;
5273;SDS011;56254;50.956;7.010;2022-10-19T13:45:54;17.70;;;4.67;;
5273;SDS011;56254;50.956;7.010;2022-10-19T13:51:30;17.47;;;3.20;;
5273;SDS011;56254;50.956;7.010;2022-10-19T14:03:08;19.10;;;4.93;;
5273;SDS011;56254;50.956;7.010;2022-10-19T14:06:16;6.03;;;4.07;;
5273;SDS011;56254;50.956;7.010;2022-10-19T14:12:44;10.17;;;4.70;;
5273;SDS011;56254;50.956;7.010;2022-10-19T14:15:22;6.67;;;3.40;;
5273;SDS011;56254;50.956;7.010;2022-10-19T14:17:56;8.40;;;2.80;;
5273;SDS011;56254;50.956;7.010;2022-10-19T14:23:18;11.50;;;3.77;;
5273;SDS011;56254;50.956;7.010;2022-10-19T14:25:51;11.73;;;3.77;;
5273;SDS011;56254;50.956;7.010;2022-10-19T14:28:43;12.20;;;3.00;;
5273;SDS011;56254;50.956;7.010;2022-10-19T14:31:18;11.37;;;3.50;;
5273;SDS011;56254;50.956;7.010;2022-10-19T14:33:51;8.87;;;3.30;;
5273;SDS011;56254;50.956;7.010;2022-10-19T14:36:20;8.60;;;3.10;;
5273;SDS011;56254;50.956;7.010;2022-10-19T14:38:55;8.90;;;3.30;;
5273;SDS011;56254;50.956;7.010;2022-10-19T14:41:29;15.30;;;3.47;;
5273;SDS011;56254;50.956;7.010;2022-10-19T14:44:29;17.43;;;3.20;;
5273;SDS011;56254;50.956;7.010;2022-10-19T14:49:43;9.57;;;3.57;;
5273;SDS011;56254;50.956;7.010;2022-10-19T14:52:09;15.43;;;4.10;;
5273;SDS011;56254;50.956;7.010;2022-10-19T14:54:40;11.47;;;3.70;;
5273;SDS011;56254;50.956;7.010;2022-10-19T14:59:49;7.53;;;2.93;;
5273;SDS011;56254;50.956;7.010;2022-10-19T15:02:26;8.07;;;3.10;;
5273;SDS011;56254;50.956;7.010;2022-10-19T15:05:54;6.07;;;3.37;;
5273;SDS011;56254;50.956;7.010;2022-10-19T15:08:36;10.20;;;2.97;;
5273;SDS011;56254;50.956;7.010;2022-10-19T15:11:06;9.50;;;3.23;;
5273;SDS011;56254;50.956;7.010;2022-10-19T15:19:30;8.20;;;3.40;;
5273;SDS011;56254;50.956;7.010;2022-10-19T15:22:10;3.97;;;2.70;;
5273;SDS011;56254;50.956;7.010;2022-10-19T15:24:40;11.73;;;3.27;;
5273;SDS011;56254;50.956;7.010;2022-10-19T15:30:30;12.57;;;2.90;;
5273;SDS011;56254;50.956;7.010;2022-10-19T15:33:19;11.50;;;2.70;;
5273;SDS011;56254;50.956;7.010;2022-10-19T15:36:02;8.00;;;2.60;;
5273;SDS011;56254;50.956;7.010;2022-10-19T15:38:46;4.40;;;2.37;;
5273;SDS011;56254;50.956;7.010;2022-10-19T15:41:41;11.70;;;3.73;;
5273;SDS011;56254;50.956;7.010;2022-10-19T15:44:28;7.33;;;2.57;;
5273;SDS011;56254;50.956;7.010;2022-10-19T15:49:56;13.90;;;3.50;;
5273;SDS011;56254;50.956;7.010;2022-10-19T15:52:33;11.40;;;2.83;;
5273;SDS011;56254;50.956;7.010;2022-10-19T15:55:03;7.63;;;2.80;;
5273;SDS011;56254;50.956;7.010;2022-10-19T15:57:31;5.97;;;2.67;;
5273;SDS011;56254;50.956;7.010;2022-10-19T16:00:06;8.80;;;2.67;;
5273;SDS011;56254;50.956;7.010;2022-10-19T16:02:47;9.30;;;2.97;;
5273;SDS011;56254;50.956;7.010;2022-10-19T16:05:34;11.20;;;3.30;;
5273;SDS011;56254;50.956;7.010;2022-10-19T16:08:06;12.13;;;2.60;;
5273;SDS011;56254;50.956;7.010;2022-10-19T16:10:35;5.60;;;2.40;;
5273;SDS011;56254;50.956;7.010;2022-10-19T16:13:05;8.63;;;2.40;;
5273;SDS011;56254;50.956;7.010;2022-10-19T16:15:34;5.77;;;2.50;;
5273;SDS011;56254;50.956;7.010;2022-10-19T16:18:09;10.60;;;2.80;;
5273;SDS011;56254;50.956;7.010;2022-10-19T16:20:42;13.60;;;2.80;;
5273;SDS011;56254;50.956;7.010;2022-10-19T16:23:08;6.83;;;3.47;;
5273;SDS011;56254;50.956;7.010;2022-10-19T16:25:49;17.33;;;2.83;;
5273;SDS011;56254;50.956;7.010;2022-10-19T16:28:16;20.97;;;3.13;;
5273;SDS011;56254;50.956;7.010;2022-10-19T16:30:50;5.80;;;2.70;;
5273;SDS011;56254;50.956;7.010;2022-10-19T16:33:36;13.40;;;2.90;;
5273;SDS011;56254;50.956;7.010;2022-10-19T16:36:13;19.67;;;3.60;;
5273;SDS011;56254;50.956;7.010;2022-10-19T16:38:47;10.27;;;2.90;;
5273;SDS011;56254;50.956;7.010;2022-10-19T16:41:13;10.20;;;2.83;;
5273;SDS011;56254;50.956;7.010;2022-10-19T16:43:55;11.63;;;3.13;;
5273;SDS011;56254;50.956;7.010;2022-10-19T16:46:32;7.50;;;3.23;;
5273;SDS011;56254;50.956;7.010;2022-10-19T16:49:19;15.77;;;3.30;;
5273;SDS011;56254;50.956;7.010;2022-10-19T16:51:50;12.03;;;3.77;;
5273;SDS011;56254;50.956;7.010;2022-10-19T16:54:23;18.50;;;3.87;;
5273;SDS011;56254;50.956;7.010;2022-10-19T16:57:00;14.00;;;3.30;;
5273;SDS011;56254;50.956;7.010;2022-10-19T16:59:25;11.93;;;3.73;;
5273;SDS011;56254;50.956;7.010;2022-10-19T17:01:52;8.53;;;3.10;;
5273;SDS011;56254;50.956;7.010;2022-10-19T17:04:18;19.47;;;3.57;;
5273;SDS011;56254;50.956;7.010;2022-10-19T17:06:44;7.40;;;3.30;;
5273;SDS011;56254;50.956;7.010;2022-10-19T17:09:10;9.97;;;3.37;;
5273;SDS011;56254;50.956;7.010;2022-10-19T17:11:37;14.77;;;4.40;;
5273;SDS011;56254;50.956;7.010;2022-10-19T17:14:07;9.77;;;3.57;;
5273;SDS011;56254;50.956;7.010;2022-10-19T17:16:40;9.23;;;3.73;;
5273;SDS011;56254;50.956;7.010;2022-10-19T17:19:08;11.70;;;4.10;;
5273;SDS011;56254;50.956;7.010;2022-10-19T17:21:37;4.77;;;3.43;;
5273;SDS011;56254;50.956;7.010;2022-10-19T17:24:05;7.73;;;3.60;;
5273;SDS011;56254;50.956;7.010;2022-10-19T17:26:41;11.03;;;4.47;;
5273;SDS011;56254;50.956;7.010;2022-10-19T17:29:20;9.37;;;3.97;;
5273;SDS011;56254;50.956;7.010;2022-10-19T17:31:50;12.70;;;5.00;;
5273;SDS011;56254;50.956;7.010;2022-10-19T17:34:17;10.07;;;3.77;;